Anzahl Datensätze: 48
min. Temperatur: 12.7 °C
max. Temperatur: 22.8 °C
max. Windgeschwindigkeit: 6.5 km/h
Niederschlagsumme: 0.0 mm
| Datum |
Zeit |
Temp °C |
Feuchte % |
Taupunkt °C |
Luftdruck hPa |
Wind km/h |
Windrichtung |
Strahlung w/m² |
Niederschlag mm |
|---|---|---|---|---|---|---|---|---|---|
| 11.07.2025 | 00:00 | 16.6 | 82 | 13.5 | 1022.0 | 0.0 | NW | 0 | 0.0 |
| 11.07.2025 | 00:30 | 16.1 | 83 | 13.2 | 1022.0 | 0.0 | NW | 0 | 0.0 |
| 11.07.2025 | 01:00 | 15.7 | 85 | 13.2 | 1022.0 | 0.0 | NW | 0 | 0.0 |
| 11.07.2025 | 01:30 | 15.1 | 86 | 12.8 | 1021.9 | 0.0 | NW | 0 | 0.0 |
| 11.07.2025 | 02:00 | 14.8 | 88 | 12.8 | 1022.0 | 0.0 | NW | 0 | 0.0 |
| 11.07.2025 | 02:30 | 14.4 | 88 | 12.4 | 1021.8 | 0.0 | NW | 0 | 0.0 |
| 11.07.2025 | 03:00 | 14.1 | 88 | 12.1 | 1021.7 | 0.0 | NW | 0 | 0.0 |
| 11.07.2025 | 03:30 | 13.7 | 89 | 11.9 | 1021.6 | 0.0 | NW | 0 | 0.0 |
| 11.07.2025 | 04:00 | 13.5 | 90 | 11.9 | 1021.5 | 0.0 | NW | 0 | 0.0 |
| 11.07.2025 | 04:30 | 13.5 | 91 | 12.1 | 1021.3 | 0.0 | NW | 0 | 0.0 |
| 11.07.2025 | 05:00 | 13.0 | 91 | 11.6 | 1021.2 | 0.0 | NW | 0 | 0.0 |
| 11.07.2025 | 05:30 | 12.8 | 91 | 11.4 | 1021.2 | 0.0 | NW | 0 | 0.0 |
| 11.07.2025 | 06:00 | 12.7 | 92 | 11.4 | 1021.1 | 0.0 | NW | 5 | 0.0 |
| 11.07.2025 | 06:30 | 12.8 | 92 | 11.5 | 1021.2 | 0.0 | NW | 14 | 0.0 |
| 11.07.2025 | 07:00 | 12.8 | 93 | 11.7 | 1021.4 | 0.0 | NW | 21 | 0.0 |
| 11.07.2025 | 07:30 | 13.3 | 94 | 12.4 | 1021.3 | 0.0 | NW | 63 | 0.0 |
| 11.07.2025 | 08:00 | 14.3 | 93 | 13.2 | 1021.3 | 0.0 | NW | 121 | 0.0 |
| 11.07.2025 | 08:30 | 15.8 | 90 | 14.2 | 1021.3 | 0.0 | NW | 195 | 0.0 |
| 11.07.2025 | 09:00 | 19.3 | 82 | 16.1 | 1021.0 | 0.0 | NW | 309 | 0.0 |
| 11.07.2025 | 09:30 | 19.4 | 80 | 15.9 | 1021.0 | 0.0 | ONO | 475 | 0.0 |
| 11.07.2025 | 10:00 | 20.4 | 76 | 16.0 | 1020.9 | 0.0 | NO | 615 | 0.0 |
| 11.07.2025 | 10:30 | 20.9 | 75 | 16.3 | 1020.7 | 0.0 | NO | 657 | 0.0 |
| 11.07.2025 | 11:00 | 21.3 | 74 | 16.5 | 1020.7 | 0.0 | NO | 636 | 0.0 |
| 11.07.2025 | 11:30 | 21.8 | 71 | 16.3 | 1020.6 | 0.0 | O | 206 | 0.0 |
| 11.07.2025 | 12:00 | 21.9 | 72 | 16.6 | 1020.4 | 0.0 | NO | 257 | 0.0 |
| 11.07.2025 | 12:30 | 22.1 | 70 | 16.4 | 1020.3 | 0.0 | ONO | 919 | 0.0 |
| 11.07.2025 | 13:00 | 22.4 | 70 | 16.7 | 1020.2 | 0.0 | NNO | 332 | 0.0 |
| 11.07.2025 | 13:30 | 22.7 | 68 | 16.5 | 1020.1 | 0.0 | NO | 248 | 0.0 |
| 11.07.2025 | 14:00 | 22.3 | 69 | 16.3 | 1020.0 | 0.0 | NO | 213 | 0.0 |
| 11.07.2025 | 14:30 | 22.5 | 67 | 16.1 | 1020.0 | 0.0 | NO | 162 | 0.0 |
| 11.07.2025 | 15:00 | 22.7 | 67 | 16.3 | 1019.8 | 0.0 | ONO | 1035 | 0.0 |
| 11.07.2025 | 15:30 | 22.7 | 67 | 16.3 | 1019.7 | 0.0 | NW | 255 | 0.0 |
| 11.07.2025 | 16:00 | 22.8 | 68 | 16.6 | 1019.6 | 0.0 | WNW | 909 | 0.0 |
| 11.07.2025 | 16:30 | 22.5 | 69 | 16.5 | 1019.4 | 0.0 | NW | 155 | 0.0 |
| 11.07.2025 | 17:00 | 22.7 | 68 | 16.5 | 1019.3 | 0.0 | NW | 148 | 0.0 |
| 11.07.2025 | 17:30 | 22.8 | 68 | 16.6 | 1019.2 | 0.0 | O | 84 | 0.0 |
| 11.07.2025 | 18:00 | 22.8 | 67 | 16.4 | 1019.0 | 0.0 | ONO | 156 | 0.0 |
| 11.07.2025 | 18:30 | 22.7 | 68 | 16.5 | 1019.0 | 0.0 | NO | 54 | 0.0 |
| 11.07.2025 | 19:00 | 22.6 | 67 | 16.2 | 1019.0 | 0.0 | ONO | 84 | 0.0 |
| 11.07.2025 | 19:30 | 22.3 | 68 | 16.1 | 1018.7 | 0.0 | NW | 63 | 0.0 |
| 11.07.2025 | 20:00 | 22.2 | 69 | 16.2 | 1018.7 | 0.0 | NW | 32 | 0.0 |
| 11.07.2025 | 20:30 | 21.4 | 71 | 15.9 | 1018.5 | 0.0 | NW | 18 | 0.0 |
| 11.07.2025 | 21:00 | 21.3 | 72 | 16.0 | 1018.3 | 0.0 | NW | 11 | 0.0 |
| 11.07.2025 | 21:30 | 20.9 | 74 | 16.1 | 1018.5 | 0.0 | NW | 0 | 0.0 |
| 11.07.2025 | 22:00 | 20.1 | 76 | 15.7 | 1018.4 | 0.0 | NW | 0 | 0.0 |
| 11.07.2025 | 22:30 | 19.1 | 79 | 15.4 | 1018.5 | 0.0 | NW | 0 | 0.0 |
| 11.07.2025 | 23:00 | 18.2 | 82 | 15.1 | 1018.5 | 0.0 | NW | 0 | 0.0 |
| 11.07.2025 | 23:30 | 17.4 | 83 | 14.5 | 1018.4 | 0.0 | NW | 0 | 0.0 |